createdAt,value
2023-04-09T00:01:03.787Z,101805.72
2023-04-09T00:03:31.233Z,101804.53
2023-04-09T00:05:58.320Z,101805.59
2023-04-09T00:08:25.527Z,101799.28
2023-04-09T00:10:52.903Z,101796.91
2023-04-09T00:13:28.325Z,101810.00
2023-04-09T00:16:03.055Z,101800.25
2023-04-09T00:18:30.452Z,101797.47
2023-04-09T00:20:57.488Z,101807.78
2023-04-09T00:23:24.588Z,101793.41
2023-04-09T00:25:51.648Z,101789.81
2023-04-09T00:28:18.686Z,101791.50
2023-04-09T00:30:45.828Z,101796.34
2023-04-09T00:33:12.908Z,101792.59
2023-04-09T00:35:39.928Z,101784.03
2023-04-09T00:38:07.039Z,101783.69
2023-04-09T00:40:34.158Z,101786.94
2023-04-09T00:43:02.455Z,101785.44
2023-04-09T00:45:29.626Z,101777.34
2023-04-09T00:47:56.772Z,101787.06
2023-04-09T00:50:23.907Z,101790.91
2023-04-09T00:52:51.347Z,101782.19
2023-04-09T00:55:18.536Z,101779.44
2023-04-09T00:57:45.782Z,101778.53
2023-04-09T01:00:13.279Z,101781.34
2023-04-09T01:02:40.855Z,101772.81
2023-04-09T01:05:08.236Z,101781.63
2023-04-09T01:07:54.827Z,101777.63
2023-04-09T01:10:45.509Z,101786.38
2023-04-09T01:13:23.176Z,101777.94
2023-04-09T01:15:52.965Z,101780.09
2023-04-09T01:18:31.373Z,101786.09
2023-04-09T01:20:59.686Z,101780.53
2023-04-09T01:23:45.728Z,101779.47
2023-04-09T01:26:23.001Z,101773.66
2023-04-09T01:28:54.877Z,101774.03
2023-04-09T01:31:25.521Z,101775.78
2023-04-09T01:33:52.709Z,101765.09
2023-04-09T01:36:19.778Z,101763.06
2023-04-09T01:38:46.824Z,101769.16
2023-04-09T01:41:17.617Z,101766.06
2023-04-09T01:43:44.681Z,101767.22
2023-04-09T01:46:12.312Z,101765.19
2023-04-09T01:48:39.698Z,101769.25
2023-04-09T01:51:06.814Z,101765.53
2023-04-09T01:53:33.857Z,101755.47
2023-04-09T01:56:01.639Z,101761.94
2023-04-09T01:58:29.303Z,101765.84
2023-04-09T02:00:57.321Z,101757.81
2023-04-09T02:03:24.340Z,101754.63
2023-04-09T02:05:56.340Z,101759.59
2023-04-09T02:08:23.462Z,101757.72
2023-04-09T02:10:55.581Z,101753.31
2023-04-09T02:13:22.742Z,101749.38
2023-04-09T02:15:50.028Z,101750.47
2023-04-09T02:18:24.021Z,101754.00
2023-04-09T02:20:52.330Z,101741.00
2023-04-09T02:23:19.316Z,101743.44
2023-04-09T02:25:46.496Z,101742.28
2023-04-09T02:28:13.662Z,101732.34
2023-04-09T02:30:41.032Z,101735.16
2023-04-09T02:33:08.130Z,101736.94
2023-04-09T02:35:35.263Z,101733.47
2023-04-09T02:38:02.473Z,101735.16
2023-04-09T02:40:29.659Z,101730.41
2023-04-09T02:42:57.364Z,101727.44
2023-04-09T02:45:24.404Z,101726.38
2023-04-09T02:47:51.754Z,101727.53
2023-04-09T02:50:19.145Z,101729.13
2023-04-09T02:52:49.950Z,101728.25
2023-04-09T02:55:18.884Z,101724.19
2023-04-09T02:57:46.001Z,101730.38
2023-04-09T03:00:13.306Z,101719.50
2023-04-09T03:02:40.639Z,101720.63
2023-04-09T03:05:08.367Z,101713.78
2023-04-09T03:07:35.448Z,101714.56
2023-04-09T03:10:02.478Z,101710.69
2023-04-09T03:12:29.626Z,101711.56
2023-04-09T03:14:56.662Z,101715.41
2023-04-09T03:17:27.048Z,101715.19
2023-04-09T03:19:54.310Z,101713.56
2023-04-09T03:22:21.794Z,101713.22
2023-04-09T03:24:52.402Z,101712.66
2023-04-09T03:27:19.507Z,101708.91
2023-04-09T03:29:50.732Z,101699.00
2023-04-09T03:32:19.097Z,101705.66
2023-04-09T03:34:46.636Z,101702.44
2023-04-09T03:37:14.175Z,101699.28
2023-04-09T03:39:41.356Z,101697.16
2023-04-09T03:42:08.427Z,101701.84
2023-04-09T03:44:44.236Z,101703.19
2023-04-09T03:47:15.499Z,101698.03
2023-04-09T03:49:42.930Z,101698.34
2023-04-09T03:52:19.776Z,101693.13
2023-04-09T03:54:54.324Z,101695.78
2023-04-09T03:57:24.500Z,101690.88
2023-04-09T03:59:53.945Z,101685.22
2023-04-09T04:02:23.143Z,101695.63
2023-04-09T04:04:59.135Z,101692.38
2023-04-09T04:07:30.667Z,101685.00
2023-04-09T04:10:04.004Z,101685.25
2023-04-09T04:12:31.775Z,101688.81
2023-04-09T04:15:21.347Z,101685.25
2023-04-09T04:17:53.544Z,101684.63
2023-04-09T04:20:29.293Z,101683.75
2023-04-09T04:23:07.552Z,101674.47
2023-04-09T04:25:37.768Z,101680.78
2023-04-09T04:28:05.336Z,101685.72
2023-04-09T04:30:41.133Z,101680.50
2023-04-09T04:33:08.903Z,101688.78
2023-04-09T04:35:43.438Z,101691.81
2023-04-09T04:38:25.261Z,101684.97
2023-04-09T04:40:52.944Z,101693.50
2023-04-09T04:43:21.454Z,101686.56
2023-04-09T04:45:50.699Z,101700.34
2023-04-09T04:48:19.169Z,101695.66
2023-04-09T04:50:46.306Z,101698.66
2023-04-09T04:53:14.066Z,101700.88
2023-04-09T04:55:48.094Z,101696.97
2023-04-09T04:58:21.978Z,101700.31
2023-04-09T05:00:54.436Z,101701.16
2023-04-09T05:03:21.711Z,101699.50
2023-04-09T05:05:59.535Z,101700.31
2023-04-09T05:08:31.009Z,101704.38
2023-04-09T05:10:58.834Z,101708.00
2023-04-09T05:13:33.247Z,101715.19
2023-04-09T05:16:02.714Z,101718.47
2023-04-09T05:18:32.414Z,101712.13
2023-04-09T05:20:59.634Z,101717.88
2023-04-09T05:23:29.353Z,101717.91
2023-04-09T05:25:56.395Z,101716.28
2023-04-09T05:28:32.260Z,101716.56
2023-04-09T05:31:13.368Z,101723.44
2023-04-09T05:33:47.000Z,101719.56
2023-04-09T05:36:19.906Z,101719.28
2023-04-09T05:38:47.359Z,101724.75
2023-04-09T05:41:14.436Z,101723.41
2023-04-09T05:43:52.185Z,101727.81
2023-04-09T05:46:20.665Z,101722.31
2023-04-09T05:48:50.833Z,101720.97
2023-04-09T05:51:18.117Z,101724.53
2023-04-09T05:53:46.405Z,101732.19
2023-04-09T05:56:17.223Z,101741.81
2023-04-09T05:58:51.981Z,101733.03
2023-04-09T06:01:20.217Z,101728.09
2023-04-09T06:03:47.352Z,101732.75
2023-04-09T06:06:14.765Z,101736.03
2023-04-09T06:08:41.803Z,101736.31
2023-04-09T06:11:10.562Z,101738.78
2023-04-09T06:13:37.910Z,101740.16
2023-04-09T06:16:08.641Z,101737.91
2023-04-09T06:18:36.783Z,101744.00
2023-04-09T06:21:04.318Z,101752.81
2023-04-09T06:23:31.734Z,101741.28
2023-04-09T06:25:58.926Z,101748.69
2023-04-09T06:28:26.305Z,101744.28
2023-04-09T06:30:54.801Z,101748.41
2023-04-09T06:33:22.321Z,101745.38
2023-04-09T06:35:49.689Z,101745.09
2023-04-09T06:38:17.077Z,101744.69
2023-04-09T06:40:44.345Z,101745.84
2023-04-09T06:43:11.326Z,101737.38
2023-04-09T06:45:49.157Z,101748.88
2023-04-09T06:48:16.274Z,101742.00
2023-04-09T06:50:43.976Z,101744.16
2023-04-09T06:53:10.998Z,101746.31
2023-04-09T06:55:38.159Z,101743.81
2023-04-09T06:58:05.851Z,101745.47
2023-04-09T07:00:32.950Z,101753.09
2023-04-09T07:03:00.815Z,101751.75
2023-04-09T07:05:28.131Z,101748.22
2023-04-09T07:07:55.540Z,101749.59
2023-04-09T07:10:22.905Z,101751.22
2023-04-09T07:12:49.994Z,101748.50
2023-04-09T07:15:17.180Z,101746.81
2023-04-09T07:17:44.297Z,101750.03
2023-04-09T07:20:11.613Z,101746.66
2023-04-09T07:22:39.056Z,101746.59
2023-04-09T07:25:06.485Z,101747.97
2023-04-09T07:27:33.583Z,101746.41
2023-04-09T07:30:00.826Z,101747.97
2023-04-09T07:32:28.403Z,101741.09
2023-04-09T07:34:55.820Z,101742.13
2023-04-09T07:37:23.306Z,101746.44
2023-04-09T07:39:51.281Z,101745.88
2023-04-09T07:42:18.370Z,101748.31
2023-04-09T07:44:45.426Z,101744.38
2023-04-09T07:47:13.075Z,101742.56
2023-04-09T07:49:40.282Z,101747.75
2023-04-09T07:52:07.608Z,101747.91
2023-04-09T07:54:34.842Z,101740.38
2023-04-09T07:57:02.128Z,101747.00
2023-04-09T07:59:29.723Z,101746.97
2023-04-09T08:01:56.990Z,101742.75
2023-04-09T08:04:24.214Z,101741.69
2023-04-09T08:06:51.388Z,101742.75
2023-04-09T08:09:18.670Z,101743.66
2023-04-09T08:11:46.234Z,101746.31
2023-04-09T08:14:13.609Z,101736.31
2023-04-09T08:16:41.651Z,101740.38
2023-04-09T08:19:09.132Z,101744.25
2023-04-09T08:21:39.394Z,101750.91
2023-04-09T08:24:07.180Z,101748.41
2023-04-09T08:26:34.276Z,101747.88
2023-04-09T08:29:01.585Z,101745.50
2023-04-09T08:31:28.717Z,101746.81
2023-04-09T08:33:55.877Z,101742.97
2023-04-09T08:36:22.976Z,101734.50
2023-04-09T08:38:50.115Z,101736.84
2023-04-09T08:41:18.049Z,101732.78
2023-04-09T08:43:57.107Z,101737.25
2023-04-09T08:46:26.381Z,101733.69
2023-04-09T08:48:54.102Z,101724.47
2023-04-09T08:51:24.895Z,101723.16
2023-04-09T08:53:54.916Z,101721.00
2023-04-09T08:56:22.385Z,101717.59
2023-04-09T08:58:49.525Z,101721.50
2023-04-09T09:01:21.102Z,101714.00
2023-04-09T09:03:56.406Z,101717.06
2023-04-09T09:06:24.329Z,101711.56
2023-04-09T09:09:01.725Z,101706.81
2023-04-09T09:11:30.280Z,101707.28
2023-04-09T09:13:58.103Z,101692.31
2023-04-09T09:16:25.818Z,101693.13
2023-04-09T09:18:54.531Z,101692.25
2023-04-09T09:21:21.839Z,101700.19
2023-04-09T09:23:50.610Z,101706.59
2023-04-09T09:26:18.546Z,101707.59
2023-04-09T09:28:47.024Z,101703.41
2023-04-09T09:31:14.447Z,101697.81
2023-04-09T09:33:41.680Z,101690.91
2023-04-09T09:36:11.675Z,101695.41
2023-04-09T09:38:51.478Z,101682.09
2023-04-09T09:41:19.494Z,101679.50
2023-04-09T09:43:46.579Z,101678.50
2023-04-09T09:46:13.674Z,101672.75
2023-04-09T09:48:40.989Z,101675.28
2023-04-09T09:51:11.907Z,101682.34
2023-04-09T09:53:40.096Z,101675.88
2023-04-09T09:56:08.190Z,101671.34
2023-04-09T09:58:37.512Z,101668.06
2023-04-09T10:01:11.325Z,101673.50
2023-04-09T10:03:39.663Z,101662.56
2023-04-09T10:06:07.781Z,101661.94
2023-04-09T10:08:36.043Z,101669.91
2023-04-09T10:11:03.671Z,101668.63
2023-04-09T10:13:51.324Z,101662.38
2023-04-09T10:16:19.299Z,101669.69
2023-04-09T10:18:46.554Z,101665.69
2023-04-09T10:21:33.880Z,101668.28
2023-04-09T10:24:05.707Z,101654.19
2023-04-09T10:26:33.224Z,101657.16
2023-04-09T10:29:06.754Z,101659.00
2023-04-09T10:31:52.958Z,101660.00
2023-04-09T10:34:24.347Z,101663.59
2023-04-09T10:37:03.018Z,101657.53
2023-04-09T10:39:33.490Z,101657.22
2023-04-09T10:42:05.161Z,101656.91
2023-04-09T10:44:32.207Z,101651.00
2023-04-09T10:46:59.635Z,101648.72
2023-04-09T10:49:27.254Z,101647.06
2023-04-09T10:51:55.709Z,101641.03
2023-04-09T10:54:34.933Z,101641.63
2023-04-09T10:57:08.116Z,101643.94
2023-04-09T10:59:38.258Z,101631.47
2023-04-09T11:02:07.505Z,101639.19
2023-04-09T11:04:39.802Z,101643.63
2023-04-09T11:07:07.279Z,101639.22
2023-04-09T11:09:34.923Z,101649.25
2023-04-09T11:12:04.112Z,101639.63
2023-04-09T11:14:31.768Z,101641.78
2023-04-09T11:16:58.967Z,101636.53
2023-04-09T11:19:26.294Z,101634.53
2023-04-09T11:21:53.272Z,101633.22
2023-04-09T11:24:20.316Z,101640.25
2023-04-09T11:26:48.679Z,101617.56
2023-04-09T11:29:15.834Z,101615.78
2023-04-09T11:31:46.150Z,101611.88
2023-04-09T11:34:13.293Z,101606.25
2023-04-09T11:36:40.651Z,101602.53
2023-04-09T11:39:07.738Z,101607.41
2023-04-09T11:41:35.559Z,101609.03
2023-04-09T11:44:06.155Z,101618.44
2023-04-09T11:46:33.683Z,101618.59
2023-04-09T11:49:01.070Z,101612.09
2023-04-09T11:51:28.471Z,101621.72
2023-04-09T11:53:55.580Z,101620.44
2023-04-09T11:56:22.671Z,101610.13
2023-04-09T11:58:49.724Z,101612.44
2023-04-09T12:01:17.228Z,101609.50
2023-04-09T12:03:44.424Z,101615.69
2023-04-09T12:06:11.566Z,101612.69
2023-04-09T12:08:38.611Z,101609.50
2023-04-09T12:11:12.798Z,101607.84
2023-04-09T12:13:43.355Z,101601.44
2023-04-09T12:16:11.613Z,101603.91
2023-04-09T12:18:39.207Z,101597.56
2023-04-09T12:21:06.538Z,101602.59
2023-04-09T12:23:33.630Z,101591.03
2023-04-09T12:26:02.155Z,101588.03
2023-04-09T12:28:29.355Z,101575.28
2023-04-09T12:30:56.869Z,101582.63
2023-04-09T12:33:23.916Z,101584.84
2023-04-09T12:35:51.122Z,101589.91
2023-04-09T12:38:18.159Z,101584.63
2023-04-09T12:40:45.462Z,101579.13
2023-04-09T12:43:12.527Z,101578.41
2023-04-09T12:45:39.578Z,101580.16
2023-04-09T12:48:06.708Z,101588.78
2023-04-09T12:50:33.794Z,101566.47
2023-04-09T12:53:00.796Z,101564.03
2023-04-09T12:55:28.127Z,101567.72
2023-04-09T12:57:55.420Z,101565.75
2023-04-09T13:00:22.579Z,101563.84
2023-04-09T13:02:51.927Z,101564.91
2023-04-09T13:05:19.244Z,101548.56
2023-04-09T13:07:46.816Z,101544.97
2023-04-09T13:10:13.839Z,101534.88
2023-04-09T13:12:41.143Z,101533.16
2023-04-09T13:15:08.185Z,101524.38
2023-04-09T13:17:35.317Z,101522.84
2023-04-09T13:20:02.456Z,101521.56
2023-04-09T13:22:29.528Z,101523.06
2023-04-09T13:24:56.892Z,101517.25
2023-04-09T13:27:24.272Z,101527.94
2023-04-09T13:29:51.459Z,101518.19
2023-04-09T13:32:21.027Z,101512.84
2023-04-09T13:34:48.245Z,101500.47
2023-04-09T13:37:15.796Z,101511.22
2023-04-09T13:39:43.809Z,101504.72
2023-04-09T13:42:13.930Z,101498.78
2023-04-09T13:44:44.487Z,101493.31
2023-04-09T13:47:13.145Z,101495.28
2023-04-09T13:49:40.782Z,101494.81
2023-04-09T13:52:07.902Z,101492.38
2023-04-09T13:54:35.456Z,101494.69
2023-04-09T13:57:02.880Z,101494.22
2023-04-09T13:59:29.959Z,101485.78
2023-04-09T14:01:57.119Z,101481.81
2023-04-09T14:04:24.361Z,101475.41
2023-04-09T14:06:51.533Z,101473.31
2023-04-09T14:09:18.975Z,101466.34
2023-04-09T14:11:46.255Z,101465.97
2023-04-09T14:14:13.368Z,101470.28
2023-04-09T14:16:40.797Z,101459.47
2023-04-09T14:19:08.030Z,101461.19
2023-04-09T14:21:35.391Z,101459.00
2023-04-09T14:24:02.506Z,101461.19
2023-04-09T14:26:29.659Z,101460.88
2023-04-09T14:28:56.945Z,101456.44
2023-04-09T14:31:24.073Z,101441.13
2023-04-09T14:33:51.211Z,101446.59
2023-04-09T14:36:18.321Z,101442.25
2023-04-09T14:38:45.916Z,101440.81
2023-04-09T14:41:12.995Z,101436.94
2023-04-09T14:43:40.130Z,101438.56
2023-04-09T14:48:39.778Z,101434.50
2023-04-09T14:51:09.332Z,101429.97
2023-04-09T14:53:36.537Z,101430.13
2023-04-09T14:56:03.902Z,101428.63
2023-04-09T14:58:31.268Z,101426.72
2023-04-09T15:00:58.552Z,101432.78
2023-04-09T15:03:26.139Z,101425.81
2023-04-09T15:05:53.497Z,101423.06
2023-04-09T15:08:20.614Z,101423.53
2023-04-09T15:10:47.748Z,101423.94
2023-04-09T15:13:14.774Z,101426.59
2023-04-09T15:15:44.039Z,101420.78
2023-04-09T15:18:11.212Z,101410.66
2023-04-09T15:20:38.809Z,101416.66
2023-04-09T15:23:05.916Z,101410.59
2023-04-09T15:25:32.984Z,101412.13
2023-04-09T15:28:00.256Z,101404.31
2023-04-09T15:30:27.381Z,101403.28
2023-04-09T15:32:54.652Z,101399.22
2023-04-09T15:35:26.650Z,101404.56
2023-04-09T15:37:53.839Z,101399.44
2023-04-09T15:40:22.177Z,101406.97
2023-04-09T15:42:49.485Z,101410.44
2023-04-09T15:45:16.645Z,101398.69
2023-04-09T15:47:43.916Z,101396.16
2023-04-09T15:50:11.097Z,101389.09
2023-04-09T15:52:38.197Z,101383.81
2023-04-09T15:55:05.544Z,101390.47
2023-04-09T15:57:32.890Z,101390.53
2023-04-09T16:00:00.118Z,101389.34
2023-04-09T16:02:28.521Z,101385.22
2023-04-09T16:04:55.602Z,101378.38
2023-04-09T16:07:22.801Z,101384.63
2023-04-09T16:09:49.866Z,101385.03
2023-04-09T16:12:16.839Z,101383.25
2023-04-09T16:14:44.562Z,101387.41
2023-04-09T16:17:11.624Z,101385.59
2023-04-09T16:19:38.745Z,101387.59
2023-04-09T16:22:06.531Z,101384.59
2023-04-09T16:24:33.771Z,101379.47
2023-04-09T16:27:01.542Z,101373.88
2023-04-09T16:29:28.779Z,101379.72
2023-04-09T16:31:57.071Z,101379.47
2023-04-09T16:34:24.959Z,101378.13
2023-04-09T16:36:52.079Z,101380.31
2023-04-09T16:39:19.296Z,101377.16
2023-04-09T16:41:46.430Z,101387.75
2023-04-09T16:44:13.829Z,101386.09
2023-04-09T16:46:40.988Z,101382.72
2023-04-09T16:49:08.077Z,101387.75
2023-04-09T16:51:35.209Z,101393.44
2023-04-09T16:54:02.376Z,101391.66
2023-04-09T16:56:29.531Z,101389.00
2023-04-09T16:58:56.597Z,101381.81
2023-04-09T17:01:23.663Z,101384.75
2023-04-09T17:03:51.260Z,101386.47
2023-04-09T17:06:18.476Z,101392.16
2023-04-09T17:08:45.710Z,101391.56
2023-04-09T17:11:16.706Z,101399.00
2023-04-09T17:13:43.853Z,101397.84
2023-04-09T17:16:11.879Z,101399.22
2023-04-09T17:18:39.221Z,101394.09
2023-04-09T17:21:06.769Z,101397.16
2023-04-09T17:23:33.983Z,101402.59
2023-04-09T17:26:01.764Z,101403.19
2023-04-09T17:28:28.804Z,101403.31
2023-04-09T17:30:56.085Z,101392.75
2023-04-09T17:33:23.145Z,101403.69
2023-04-09T17:35:50.344Z,101408.78
2023-04-09T17:38:21.323Z,101405.03
2023-04-09T17:40:48.756Z,101408.94
2023-04-09T17:43:15.844Z,101408.50
2023-04-09T17:45:43.333Z,101411.16
2023-04-09T17:48:10.889Z,101421.91
2023-04-09T17:50:38.956Z,101411.88
2023-04-09T17:53:06.306Z,101426.13
2023-04-09T17:55:33.572Z,101422.69
2023-04-09T17:58:00.918Z,101421.38
2023-04-09T18:00:28.428Z,101416.44
2023-04-09T18:02:56.594Z,101419.13
2023-04-09T18:05:24.312Z,101410.00
2023-04-09T18:07:52.647Z,101419.97
2023-04-09T18:10:24.694Z,101420.91
2023-04-09T18:12:51.883Z,101410.38
2023-04-09T18:15:19.288Z,101415.44
2023-04-09T18:17:46.539Z,101411.06
2023-04-09T18:21:51.037Z,101411.69
2023-04-09T18:24:18.737Z,101411.34
2023-04-09T18:26:46.104Z,101415.34
2023-04-09T18:29:13.651Z,101416.44
2023-04-09T18:31:40.900Z,101420.84
2023-04-09T18:34:08.198Z,101414.84
2023-04-09T18:36:35.790Z,101410.81
2023-04-09T18:39:05.034Z,101419.97
2023-04-09T18:41:32.528Z,101412.41
2023-04-09T18:43:59.837Z,101419.78
2023-04-09T18:46:27.873Z,101429.41
2023-04-09T18:48:55.492Z,101434.97
2023-04-09T18:51:23.593Z,101434.63
2023-04-09T18:53:53.067Z,101427.19
2023-04-09T18:56:21.258Z,101427.75
2023-04-09T18:58:48.917Z,101438.59
2023-04-09T19:01:17.553Z,101428.75
2023-04-09T19:03:45.460Z,101433.41
2023-04-09T19:06:14.925Z,101433.75
2023-04-09T19:08:42.268Z,101435.03
2023-04-09T19:11:09.614Z,101437.81
2023-04-09T19:13:37.720Z,101439.53
2023-04-09T19:16:06.966Z,101430.00
2023-04-09T19:18:34.453Z,101434.63
2023-04-09T19:21:01.840Z,101436.09
2023-04-09T19:23:30.009Z,101439.06
2023-04-09T19:25:57.446Z,101433.41
2023-04-09T19:28:24.768Z,101438.47
2023-04-09T19:30:52.627Z,101447.56
2023-04-09T19:33:24.168Z,101444.66
2023-04-09T19:35:52.411Z,101439.66
2023-04-09T19:38:20.412Z,101434.38
2023-04-09T19:40:47.892Z,101442.13
2023-04-09T19:43:15.569Z,101437.81
2023-04-09T19:45:43.233Z,101436.28
2023-04-09T19:48:10.861Z,101431.19
2023-04-09T19:50:40.519Z,101434.66
2023-04-09T19:53:07.862Z,101426.06
2023-04-09T19:55:35.803Z,101437.50
2023-04-09T19:58:03.580Z,101438.63
2023-04-09T20:00:31.147Z,101436.06
2023-04-09T20:02:58.747Z,101437.06
2023-04-09T20:05:27.095Z,101435.22
2023-04-09T20:07:54.752Z,101437.81
2023-04-09T20:10:22.105Z,101442.91
2023-04-09T20:12:49.910Z,101442.03
2023-04-09T20:15:20.086Z,101440.44
2023-04-09T20:17:48.641Z,101438.63
2023-04-09T20:20:20.507Z,101437.38
2023-04-09T20:22:55.728Z,101443.66
2023-04-09T20:25:24.664Z,101441.00
2023-04-09T20:27:56.100Z,101450.69
2023-04-09T20:30:23.403Z,101452.50
2023-04-09T20:32:50.853Z,101456.13
2023-04-09T20:35:18.336Z,101442.53
2023-04-09T20:37:48.330Z,101439.06
2023-04-09T20:40:16.624Z,101443.69
2023-04-09T20:42:43.986Z,101447.97
2023-04-09T20:45:11.417Z,101440.00
2023-04-09T20:47:38.748Z,101450.66
2023-04-09T20:50:06.459Z,101443.63
2023-04-09T20:52:33.778Z,101443.19
2023-04-09T20:55:01.339Z,101441.53
2023-04-09T20:57:28.877Z,101428.59
2023-04-09T20:59:56.112Z,101427.56
2023-04-09T21:02:23.822Z,101429.72
2023-04-09T21:04:51.387Z,101427.53
2023-04-09T21:07:18.636Z,101424.03
2023-04-09T21:09:46.786Z,101421.34
2023-04-09T21:12:14.070Z,101425.47
2023-04-09T21:14:41.627Z,101431.94
2023-04-09T21:17:09.818Z,101431.88
2023-04-09T21:19:37.229Z,101438.31
2023-04-09T21:22:04.737Z,101420.13
2023-04-09T21:24:34.151Z,101431.22
2023-04-09T21:27:06.821Z,101442.53
2023-04-09T21:29:34.899Z,101441.88
2023-04-09T21:32:02.596Z,101434.72
2023-04-09T21:34:30.340Z,101437.66
2023-04-09T21:36:57.662Z,101440.91
2023-04-09T21:39:25.173Z,101438.78
2023-04-09T21:41:52.401Z,101437.31
2023-04-09T21:44:19.730Z,101437.16
2023-04-09T21:46:47.744Z,101431.63
2023-04-09T21:49:15.105Z,101432.09
2023-04-09T21:51:45.437Z,101430.13
2023-04-09T21:54:12.667Z,101430.94
2023-04-09T21:56:39.891Z,101434.84
2023-04-09T21:59:07.430Z,101436.34
2023-04-09T22:01:35.458Z,101432.41
2023-04-09T22:04:02.995Z,101426.22
2023-04-09T22:06:31.074Z,101425.88
2023-04-09T22:08:58.725Z,101431.25
2023-04-09T22:11:27.533Z,101432.41
2023-04-09T22:13:56.587Z,101422.31
2023-04-09T22:16:24.650Z,101430.78
2023-04-09T22:18:53.612Z,101429.31
2023-04-09T22:21:21.581Z,101429.13
2023-04-09T22:23:48.912Z,101432.25
2023-04-09T22:26:16.214Z,101427.53
2023-04-09T22:28:43.524Z,101427.19
2023-04-09T22:31:10.973Z,101432.19
2023-04-09T22:33:38.182Z,101432.53
2023-04-09T22:36:06.563Z,101431.84
2023-04-09T22:38:34.474Z,101430.66
2023-04-09T22:41:01.721Z,101432.22
2023-04-09T22:43:29.095Z,101429.09
2023-04-09T22:45:57.212Z,101426.69
2023-04-09T22:48:24.628Z,101422.25
2023-04-09T22:50:51.940Z,101425.19
2023-04-09T22:53:19.534Z,101425.38
2023-04-09T22:55:47.649Z,101427.63
2023-04-09T22:58:15.026Z,101432.84
2023-04-09T23:00:42.885Z,101431.47
2023-04-09T23:03:10.597Z,101428.56
2023-04-09T23:05:38.148Z,101425.97
2023-04-09T23:08:05.867Z,101414.19
2023-04-09T23:10:33.933Z,101414.38
2023-04-09T23:13:01.992Z,101411.72
2023-04-09T23:15:29.548Z,101404.41
2023-04-09T23:17:56.990Z,101407.34
2023-04-09T23:20:24.696Z,101395.56
2023-04-09T23:22:52.926Z,101398.34
2023-04-09T23:25:21.903Z,101397.72
2023-04-09T23:27:49.454Z,101390.09
2023-04-09T23:30:17.204Z,101399.44
2023-04-09T23:32:45.095Z,101396.28
2023-04-09T23:35:12.366Z,101393.41
2023-04-09T23:37:40.861Z,101387.34
2023-04-09T23:40:11.503Z,101391.41
2023-04-09T23:42:38.970Z,101389.50
2023-04-09T23:45:07.071Z,101395.50
2023-04-09T23:47:36.563Z,101384.88
2023-04-09T23:50:05.767Z,101388.31
2023-04-09T23:52:35.859Z,101381.28
2023-04-09T23:55:09.837Z,101375.91
2023-04-09T23:57:37.722Z,101379.47
